createdAt,value
2022-09-04T00:02:17.004Z,94242.19
2022-09-04T00:05:13.134Z,94241.72
2022-09-04T00:07:46.902Z,94249.06
2022-09-04T00:10:23.886Z,94241.50
2022-09-04T00:12:50.641Z,94240.84
2022-09-04T00:15:20.542Z,94243.38
2022-09-04T00:17:53.363Z,94243.78
2022-09-04T00:20:43.331Z,94254.59
2022-09-04T00:23:16.212Z,94242.84
2022-09-04T00:25:59.445Z,94253.94
2022-09-04T00:28:40.239Z,94254.91
2022-09-04T00:31:19.467Z,94253.81
2022-09-04T00:34:07.472Z,94257.97
2022-09-04T00:36:37.052Z,94252.28
2022-09-04T00:39:13.839Z,94254.25
2022-09-04T00:42:09.233Z,94254.31
2022-09-04T00:44:47.640Z,94251.47
2022-09-04T00:47:32.942Z,94251.47
2022-09-04T00:50:30.590Z,94240.91
2022-09-04T00:53:22.454Z,94250.81
2022-09-04T00:56:00.124Z,94242.75
2022-09-04T00:58:44.887Z,94245.28
2022-09-04T01:01:16.618Z,94241.00
2022-09-04T01:04:04.653Z,94246.78
2022-09-04T01:06:46.313Z,94242.66
2022-09-04T01:09:32.552Z,94241.88
2022-09-04T01:12:11.464Z,94253.69
2022-09-04T01:14:41.981Z,94260.72
2022-09-04T01:17:23.263Z,94258.22
2022-09-04T01:20:14.773Z,94259.06
2022-09-04T01:22:47.702Z,94258.94
2022-09-04T01:25:23.149Z,94253.78
2022-09-04T01:27:56.852Z,94263.16
2022-09-04T01:30:23.698Z,94253.47
2022-09-04T01:33:24.222Z,94256.88
2022-09-04T01:36:41.702Z,94259.06
2022-09-04T01:39:08.483Z,94259.44
2022-09-04T01:41:53.133Z,94263.78
2022-09-04T01:44:19.832Z,94261.00
2022-09-04T01:47:16.521Z,94262.03
2022-09-04T01:49:57.616Z,94264.97
2022-09-04T01:52:36.743Z,94261.72
2022-09-04T01:55:44.921Z,94267.66
2022-09-04T01:58:27.774Z,94265.50
2022-09-04T02:01:16.047Z,94256.72
2022-09-04T02:03:50.922Z,94256.31
2022-09-04T02:07:05.870Z,94266.00
2022-09-04T02:09:57.975Z,94269.78
2022-09-04T02:13:05.020Z,94260.59
2022-09-04T02:15:58.748Z,94270.81
2022-09-04T02:18:50.196Z,94257.84
2022-09-04T02:21:44.189Z,94265.75
2022-09-04T02:24:33.927Z,94255.31
2022-09-04T02:27:26.640Z,94255.47
2022-09-04T02:30:04.217Z,94257.97
2022-09-04T02:32:52.202Z,94261.16
2022-09-04T02:35:44.974Z,94257.81
2022-09-04T02:38:30.879Z,94255.78
2022-09-04T02:41:37.512Z,94257.81
2022-09-04T02:44:41.760Z,94263.94
2022-09-04T02:47:21.533Z,94266.69
2022-09-04T02:50:26.564Z,94268.91
2022-09-04T02:53:05.135Z,94272.16
2022-09-04T02:56:09.672Z,94274.78
2022-09-04T02:58:54.753Z,94287.28
2022-09-04T03:01:29.395Z,94290.59
2022-09-04T03:04:11.395Z,94284.28
2022-09-04T03:06:58.073Z,94289.88
2022-09-04T03:09:36.045Z,94286.88
2022-09-04T03:12:26.707Z,94286.63
2022-09-04T03:15:15.027Z,94284.44
2022-09-04T03:18:05.814Z,94292.97
2022-09-04T03:20:40.157Z,94297.13
2022-09-04T03:23:19.595Z,94296.94
2022-09-04T03:26:24.680Z,94295.69
2022-09-04T03:29:32.864Z,94301.78
2022-09-04T03:32:18.384Z,94299.88
2022-09-04T03:34:56.883Z,94306.94
2022-09-04T03:37:46.554Z,94306.47
2022-09-04T03:40:26.083Z,94304.22
2022-09-04T03:43:33.397Z,94304.63
2022-09-04T03:46:34.693Z,94305.47
2022-09-04T03:49:12.949Z,94309.53
2022-09-04T03:51:51.273Z,94314.06
2022-09-04T03:54:41.201Z,94319.25
2022-09-04T03:57:11.997Z,94320.34
2022-09-04T04:00:03.995Z,94320.44
2022-09-04T04:02:58.149Z,94321.22
2022-09-04T04:05:30.568Z,94327.16
2022-09-04T04:08:18.633Z,94325.19
2022-09-04T04:11:18.353Z,94318.47
2022-09-04T04:14:18.743Z,94329.72
2022-09-04T04:16:56.302Z,94331.88
2022-09-04T04:19:51.508Z,94329.88
2022-09-04T04:22:33.072Z,94331.13
2022-09-04T04:25:02.479Z,94333.97
2022-09-04T04:27:41.225Z,94338.72
2022-09-04T04:30:17.277Z,94342.75
2022-09-04T04:33:10.609Z,94344.41
2022-09-04T04:35:56.143Z,94356.44
2022-09-04T04:38:39.313Z,94357.88
2022-09-04T04:41:22.034Z,94357.88
2022-09-04T04:44:07.946Z,94369.97
2022-09-04T04:46:52.021Z,94381.78
2022-09-04T04:50:13.607Z,94371.91
2022-09-04T04:53:00.162Z,94378.03
2022-09-04T04:55:38.761Z,94386.22
2022-09-04T04:58:44.697Z,94390.06
2022-09-04T05:01:28.050Z,94390.50
2022-09-04T05:03:57.588Z,94395.88
2022-09-04T05:07:09.230Z,94403.81
2022-09-04T05:09:44.040Z,94397.00
2022-09-04T05:12:44.207Z,94403.94
2022-09-04T05:15:18.057Z,94406.97
2022-09-04T05:18:01.912Z,94391.38
2022-09-04T05:20:54.545Z,94413.19
2022-09-04T05:23:24.918Z,94413.00
2022-09-04T05:26:12.337Z,94417.31
2022-09-04T05:28:48.532Z,94421.44
2022-09-04T05:31:17.921Z,94414.97
2022-09-04T05:34:07.876Z,94413.84
2022-09-04T05:36:47.337Z,94428.63
2022-09-04T05:39:24.334Z,94426.53
2022-09-04T05:42:06.563Z,94426.72
2022-09-04T05:44:58.505Z,94434.13
2022-09-04T05:47:37.373Z,94426.41
2022-09-04T05:50:07.097Z,94432.50
2022-09-04T05:52:45.918Z,94431.22
2022-09-04T05:55:49.542Z,94430.19
2022-09-04T05:58:37.421Z,94431.69
2022-09-04T06:01:23.772Z,94438.81
2022-09-04T06:04:01.117Z,94431.84
2022-09-04T06:06:38.808Z,94428.00
2022-09-04T06:09:20.617Z,94446.03
2022-09-04T06:12:21.798Z,94440.19
2022-09-04T06:15:13.315Z,94439.13
2022-09-04T06:17:48.692Z,94434.53
2022-09-04T06:20:15.292Z,94440.41
2022-09-04T06:23:28.233Z,94449.13
2022-09-04T06:26:03.322Z,94454.81
2022-09-04T06:29:05.826Z,94455.78
2022-09-04T06:31:51.162Z,94463.06
2022-09-04T06:34:40.532Z,94463.06
2022-09-04T06:37:42.862Z,94460.22
2022-09-04T06:40:21.849Z,94468.16
2022-09-04T06:43:00.729Z,94466.50
2022-09-04T06:45:40.454Z,94466.91
2022-09-04T06:48:23.903Z,94461.13
2022-09-04T06:51:00.209Z,94463.13
2022-09-04T06:54:05.061Z,94462.91
2022-09-04T06:57:18.073Z,94472.75
2022-09-04T06:59:53.896Z,94474.28
2022-09-04T07:02:37.427Z,94483.84
2022-09-04T07:05:23.032Z,94472.34
2022-09-04T07:08:10.101Z,94475.81
2022-09-04T07:10:43.686Z,94478.34
2022-09-04T07:13:48.142Z,94478.09
2022-09-04T07:16:14.781Z,94480.81
2022-09-04T07:18:58.980Z,94489.78
2022-09-04T07:21:40.208Z,94484.22
2022-09-04T07:24:38.820Z,94483.97
2022-09-04T07:27:23.541Z,94483.50
2022-09-04T07:30:00.692Z,94483.81
2022-09-04T07:32:55.080Z,94491.59
2022-09-04T07:35:33.403Z,94486.34
2022-09-04T07:38:33.416Z,94486.28
2022-09-04T07:41:17.885Z,94484.69
2022-09-04T07:44:09.897Z,94490.97
2022-09-04T07:46:36.587Z,94489.13
2022-09-04T07:49:36.713Z,94504.47
2022-09-04T07:52:21.548Z,94511.47
2022-09-04T07:55:11.431Z,94505.81
2022-09-04T07:58:04.683Z,94500.41
2022-09-04T08:00:42.573Z,94509.16
2022-09-04T08:03:33.982Z,94511.44
2022-09-04T08:06:14.198Z,94526.69
2022-09-04T08:09:14.261Z,94527.78
2022-09-04T08:11:55.583Z,94534.25
2022-09-04T08:14:32.668Z,94549.28
2022-09-04T08:17:37.250Z,94551.47
2022-09-04T08:20:30.661Z,94557.66
2022-09-04T08:23:24.642Z,94574.78
2022-09-04T08:26:16.193Z,94576.59
2022-09-04T08:28:57.181Z,94586.34
2022-09-04T08:31:31.333Z,94592.56
2022-09-04T08:34:29.169Z,94586.53
2022-09-04T08:37:07.733Z,94580.00
2022-09-04T08:40:18.864Z,94588.41
2022-09-04T08:42:57.093Z,94586.88
2022-09-04T08:46:14.725Z,94590.34
2022-09-04T08:49:09.533Z,94586.69
2022-09-04T08:51:57.315Z,94586.03
2022-09-04T08:54:35.492Z,94584.19
2022-09-04T08:57:33.199Z,94592.16
2022-09-04T09:00:42.487Z,94582.06
2022-09-04T09:03:29.793Z,94584.72
2022-09-04T09:05:56.823Z,94592.28
2022-09-04T09:08:41.942Z,94584.00
2022-09-04T09:11:34.695Z,94587.94
2022-09-04T09:14:25.283Z,94581.34
2022-09-04T09:16:57.772Z,94582.63
2022-09-04T09:19:44.822Z,94588.44
2022-09-04T09:22:29.852Z,94578.56
2022-09-04T09:25:13.012Z,94572.91
2022-09-04T09:28:14.672Z,94573.88
2022-09-04T09:31:12.509Z,94570.78
2022-09-04T09:34:05.573Z,94577.16
2022-09-04T09:36:51.023Z,94582.25
2022-09-04T09:39:47.078Z,94561.28
2022-09-04T09:42:14.082Z,94554.94
2022-09-04T09:45:00.862Z,94548.09
2022-09-04T09:48:01.411Z,94544.84
2022-09-04T09:50:52.061Z,94538.28
2022-09-04T09:53:47.687Z,94538.56
2022-09-04T09:56:29.602Z,94536.47
2022-09-04T09:59:21.142Z,94534.91
2022-09-04T10:02:09.713Z,94540.31
2022-09-04T10:05:10.194Z,94531.53
2022-09-04T10:08:14.014Z,94542.47
2022-09-04T10:11:07.121Z,94567.75
2022-09-04T10:13:44.204Z,94566.19
2022-09-04T10:16:35.901Z,94577.06
2022-09-04T10:19:23.249Z,94568.88
2022-09-04T10:22:19.224Z,94578.97
2022-09-04T10:25:04.413Z,94572.06
2022-09-04T10:27:52.880Z,94594.84
2022-09-04T10:30:23.492Z,94584.00
2022-09-04T10:33:10.716Z,94576.03
2022-09-04T10:35:56.045Z,94565.25
2022-09-04T10:38:58.755Z,94567.59
2022-09-04T10:41:55.742Z,94568.44
2022-09-04T10:44:47.001Z,94572.09
2022-09-04T10:47:19.361Z,94567.38
2022-09-04T10:50:01.382Z,94571.63
2022-09-04T10:52:35.553Z,94563.34
2022-09-04T10:55:17.884Z,94565.53
2022-09-04T10:57:48.096Z,94566.81
2022-09-04T11:00:21.082Z,94578.97
2022-09-04T11:03:13.899Z,94566.97
2022-09-04T11:06:39.212Z,94577.13
2022-09-04T11:09:14.782Z,94568.69
2022-09-04T11:12:31.736Z,94567.56
2022-09-04T11:15:36.542Z,94562.91
2022-09-04T11:18:24.342Z,94565.81
2022-09-04T11:21:09.761Z,94570.56
2022-09-04T11:24:21.572Z,94561.59
2022-09-04T11:27:26.463Z,94563.69
2022-09-04T11:30:02.566Z,94571.63
2022-09-04T11:32:32.342Z,94560.81
2022-09-04T11:35:25.973Z,94556.84
2022-09-04T11:38:00.257Z,94558.41
2022-09-04T11:40:39.241Z,94554.19
2022-09-04T11:43:21.461Z,94558.19
2022-09-04T11:46:15.678Z,94568.97
2022-09-04T11:49:20.484Z,94561.59
2022-09-04T11:52:04.262Z,94565.53
2022-09-04T11:55:09.023Z,94568.97
2022-09-04T11:57:41.772Z,94564.22
2022-09-04T12:00:18.591Z,94564.75
2022-09-04T12:02:48.203Z,94563.44
2022-09-04T12:05:55.347Z,94565.47
2022-09-04T12:08:38.911Z,94557.88
2022-09-04T12:11:24.032Z,94545.22
2022-09-04T12:14:15.303Z,94554.69
2022-09-04T12:16:53.143Z,94551.31
2022-09-04T12:19:24.352Z,94550.25
2022-09-04T12:22:01.743Z,94542.84
2022-09-04T12:24:46.442Z,94545.97
2022-09-04T12:27:31.534Z,94539.19
2022-09-04T12:30:05.893Z,94541.81
2022-09-04T12:33:08.349Z,94541.56
2022-09-04T12:36:00.806Z,94548.44
2022-09-04T12:38:52.401Z,94546.03
2022-09-04T12:41:25.631Z,94536.28
2022-09-04T12:44:17.313Z,94544.69
2022-09-04T12:46:56.024Z,94544.19
2022-09-04T12:49:26.287Z,94548.69
2022-09-04T12:52:07.033Z,94546.28
2022-09-04T12:54:43.944Z,94546.84
2022-09-04T12:57:20.829Z,94538.66
2022-09-04T12:59:57.289Z,94540.50
2022-09-04T13:02:51.762Z,94547.34
2022-09-04T13:05:54.069Z,94542.06
2022-09-04T13:08:29.801Z,94531.22
2022-09-04T13:11:13.796Z,94531.41
2022-09-04T13:13:43.343Z,94535.06
2022-09-04T13:16:41.101Z,94534.56
2022-09-04T13:19:12.025Z,94540.97
2022-09-04T13:22:17.077Z,94543.16
2022-09-04T13:24:59.542Z,94538.13
2022-09-04T13:27:57.502Z,94532.56
2022-09-04T13:30:25.595Z,94530.94
2022-09-04T13:33:04.581Z,94538.88
2022-09-04T13:35:59.160Z,94539.34
2022-09-04T13:38:29.475Z,94537.75
2022-09-04T13:41:15.722Z,94525.88
2022-09-04T13:44:13.077Z,94526.91
2022-09-04T13:46:58.001Z,94525.59
2022-09-04T13:49:39.799Z,94527.19
2022-09-04T13:52:11.276Z,94522.38
2022-09-04T13:54:42.709Z,94526.59
2022-09-04T13:57:21.960Z,94524.97
2022-09-04T13:59:50.050Z,94531.34
2022-09-04T14:02:24.610Z,94535.31
2022-09-04T14:05:16.057Z,94533.44
2022-09-04T14:07:45.809Z,94528.41
2022-09-04T14:10:38.866Z,94530.94
2022-09-04T14:13:14.153Z,94528.03
2022-09-04T14:15:58.167Z,94538.03
2022-09-04T14:19:15.878Z,94541.16
2022-09-04T14:21:55.486Z,94546.53
2022-09-04T14:24:46.170Z,94553.91
2022-09-04T14:27:31.496Z,94555.91
2022-09-04T14:30:04.233Z,94561.03
2022-09-04T14:32:42.995Z,94551.81
2022-09-04T14:35:29.002Z,94546.06
2022-09-04T14:38:16.245Z,94530.75
2022-09-04T14:40:56.732Z,94541.06
2022-09-04T14:43:33.302Z,94531.03
2022-09-04T14:46:18.312Z,94534.97
2022-09-04T14:48:47.187Z,94537.03
2022-09-04T14:51:16.816Z,94534.91
2022-09-04T14:53:57.230Z,94527.78
2022-09-04T14:56:29.146Z,94527.75
2022-09-04T14:59:02.692Z,94529.78
2022-09-04T15:01:31.631Z,94525.88
2022-09-04T15:04:05.258Z,94529.50
2022-09-04T15:07:01.019Z,94531.56
2022-09-04T15:09:46.884Z,94540.03
2022-09-04T15:12:25.711Z,94540.06
2022-09-04T15:15:04.002Z,94539.09
2022-09-04T15:17:31.127Z,94530.59
2022-09-04T15:20:09.240Z,94530.09
2022-09-04T15:22:51.381Z,94534.66
2022-09-04T15:25:18.083Z,94537.56
2022-09-04T15:28:03.893Z,94535.72
2022-09-04T15:30:37.117Z,94532.81
2022-09-04T15:33:12.424Z,94533.91
2022-09-04T15:35:39.992Z,94526.53
2022-09-04T15:38:22.740Z,94528.66
2022-09-04T15:41:16.024Z,94528.72
2022-09-04T15:43:58.334Z,94530.56
2022-09-04T15:46:44.356Z,94532.69
2022-09-04T15:49:32.458Z,94537.22
2022-09-04T15:52:24.434Z,94536.22
2022-09-04T15:54:56.238Z,94532.31
2022-09-04T15:57:33.143Z,94541.00
2022-09-04T16:00:09.491Z,94539.44
2022-09-04T16:02:43.929Z,94541.53
2022-09-04T16:05:24.007Z,94547.34
2022-09-04T16:08:37.464Z,94547.88
2022-09-04T16:11:18.985Z,94544.22
2022-09-04T16:13:58.154Z,94541.31
2022-09-04T16:16:48.649Z,94541.31
2022-09-04T16:19:32.994Z,94538.66
2022-09-04T16:22:10.472Z,94542.59
2022-09-04T16:24:46.579Z,94548.44
2022-09-04T16:27:19.300Z,94552.91
2022-09-04T16:29:58.429Z,94548.69
2022-09-04T16:32:27.194Z,94552.09
2022-09-04T16:35:06.687Z,94551.31
2022-09-04T16:37:51.603Z,94553.13
2022-09-04T16:40:36.006Z,94551.81
2022-09-04T16:43:24.678Z,94556.75
2022-09-04T16:46:03.160Z,94562.56
2022-09-04T16:48:35.368Z,94568.09
2022-09-04T16:51:41.479Z,94556.72
2022-09-04T16:54:17.327Z,94562.47
2022-09-04T16:57:12.398Z,94568.75
2022-09-04T16:59:46.221Z,94571.13
2022-09-04T17:02:54.040Z,94578.47
2022-09-04T17:05:50.001Z,94573.44
2022-09-04T17:08:37.098Z,94585.78
2022-09-04T17:11:15.279Z,94592.59
2022-09-04T17:13:52.901Z,94584.41
2022-09-04T17:16:24.137Z,94588.59
2022-09-04T17:18:55.578Z,94594.31
2022-09-04T17:26:44.394Z,94597.44
2022-09-04T17:29:13.981Z,94600.28
2022-09-04T17:29:18.804Z,94595.91
2022-09-04T17:30:43.822Z,94612.91
2022-09-04T17:39:03.177Z,94617.34
2022-09-04T17:40:37.077Z,94606.47
2022-09-04T17:40:51.162Z,94607.47
2022-09-04T17:42:25.901Z,94616.63
2022-09-04T17:45:01.564Z,94614.22
2022-09-04T17:47:38.107Z,94612.66
2022-09-04T17:50:13.951Z,94616.81
2022-09-04T17:53:00.611Z,94623.53
2022-09-04T17:55:34.939Z,94634.69
2022-09-04T17:58:24.373Z,94631.56
2022-09-04T18:01:15.006Z,94634.88
2022-09-04T18:04:22.658Z,94639.56
2022-09-04T18:07:28.928Z,94637.19
2022-09-04T18:10:04.451Z,94648.16
2022-09-04T18:12:48.728Z,94652.53
2022-09-04T18:15:34.001Z,94651.75
2022-09-04T18:18:29.282Z,94654.59
2022-09-04T18:21:02.281Z,94658.13
2022-09-04T18:24:10.111Z,94663.06
2022-09-04T18:26:41.717Z,94667.81
2022-09-04T18:29:56.905Z,94673.00
2022-09-04T18:37:12.307Z,94674.41
2022-09-04T18:37:20.965Z,94675.69
2022-09-04T18:38:19.854Z,94676.97
2022-09-04T18:42:34.341Z,94681.84
2022-09-04T18:50:20.387Z,94691.47
2022-09-04T18:50:51.326Z,94696.94
2022-09-04T18:50:52.511Z,94688.78
2022-09-04T18:52:30.348Z,94696.09
2022-09-04T18:55:01.913Z,94704.06
2022-09-04T18:57:48.129Z,94698.56
2022-09-04T19:00:29.087Z,94709.81
2022-09-04T19:03:19.569Z,94714.72
2022-09-04T19:05:47.685Z,94709.63
2022-09-04T19:08:21.898Z,94717.66
2022-09-04T19:10:53.911Z,94719.75
2022-09-04T19:13:48.018Z,94721.00
2022-09-04T19:16:29.573Z,94726.88
2022-09-04T19:19:09.121Z,94723.78
2022-09-04T19:21:45.043Z,94725.97
2022-09-04T19:24:35.982Z,94723.72
2022-09-04T19:27:26.767Z,94729.53
2022-09-04T19:30:19.857Z,94726.25
2022-09-04T19:32:59.717Z,94734.16
2022-09-04T19:35:36.978Z,94717.66
2022-09-04T19:45:05.689Z,94732.41
2022-09-04T19:46:00.712Z,94722.53
2022-09-04T19:46:08.760Z,94733.09
2022-09-04T19:47:27.344Z,94728.41
2022-09-04T19:53:22.201Z,94722.63
2022-09-04T19:53:33.327Z,94716.19
2022-09-04T19:55:47.145Z,94720.19
2022-09-04T19:58:39.964Z,94723.81
2022-09-04T20:01:16.570Z,94720.25
2022-09-04T20:03:49.283Z,94712.06
2022-09-04T20:06:20.631Z,94718.38
2022-09-04T20:09:33.242Z,94723.38
2022-09-04T20:12:35.461Z,94727.16
2022-09-04T20:15:12.179Z,94733.97
2022-09-04T20:17:55.165Z,94726.63
2022-09-04T20:20:25.127Z,94732.31
2022-09-04T20:23:00.333Z,94735.78
2022-09-04T20:25:33.421Z,94742.53
2022-09-04T20:28:09.202Z,94741.19
2022-09-04T20:30:37.462Z,94742.44
2022-09-04T20:33:11.570Z,94736.06
2022-09-04T20:35:49.199Z,94740.63
2022-09-04T20:38:37.612Z,94743.28
2022-09-04T20:41:50.314Z,94737.91
2022-09-04T20:45:56.407Z,94747.72
2022-09-04T20:52:45.939Z,94746.09
2022-09-04T20:52:52.411Z,94747.72
2022-09-04T20:53:37.522Z,94752.22
2022-09-04T20:56:51.984Z,94750.97
2022-09-04T21:03:11.418Z,94758.69
2022-09-04T21:03:23.006Z,94754.75
2022-09-04T21:05:54.174Z,94751.06
2022-09-04T21:08:46.673Z,94757.09
2022-09-04T21:11:39.708Z,94761.22
2022-09-04T21:14:12.513Z,94756.97
2022-09-04T21:17:02.077Z,94753.25
2022-09-04T21:19:46.950Z,94759.38
2022-09-04T21:22:43.910Z,94767.00
2022-09-04T21:25:52.471Z,94770.50
2022-09-04T21:28:45.158Z,94776.53
2022-09-04T21:31:46.786Z,94776.53
2022-09-04T21:34:43.608Z,94773.09
2022-09-04T21:37:54.824Z,94780.09
2022-09-04T21:40:51.637Z,94785.78
2022-09-04T21:43:53.478Z,94784.66
2022-09-04T21:46:50.915Z,94784.84
2022-09-04T21:49:49.955Z,94789.75
2022-09-04T21:52:28.128Z,94789.66
2022-09-04T21:59:24.474Z,94786.25
2022-09-04T22:02:27.024Z,94786.31
2022-09-04T22:02:39.907Z,94793.88
2022-09-04T22:04:34.944Z,94785.91
2022-09-04T22:11:50.265Z,94791.28
2022-09-04T22:13:37.633Z,94782.53
2022-09-04T22:13:42.965Z,94793.75
2022-09-04T22:16:17.879Z,94784.28
2022-09-04T22:18:53.622Z,94794.91
2022-09-04T22:22:03.296Z,94774.66
2022-09-04T22:24:41.200Z,94794.41
2022-09-04T22:28:08.109Z,94792.69
2022-09-04T22:31:11.476Z,94791.13
2022-09-04T22:34:14.933Z,94791.91
2022-09-04T22:37:00.423Z,94793.69
2022-09-04T22:39:31.768Z,94789.13
2022-09-04T22:42:20.459Z,94783.53
2022-09-04T22:45:10.055Z,94797.16
2022-09-04T22:47:57.123Z,94789.22
2022-09-04T22:50:49.369Z,94782.91
2022-09-04T22:53:39.429Z,94785.78
2022-09-04T22:56:22.892Z,94789.41
2022-09-04T22:59:26.785Z,94785.78
2022-09-04T23:02:14.021Z,94793.56
2022-09-04T23:05:17.769Z,94792.25
2022-09-04T23:13:48.166Z,94798.91
2022-09-04T23:13:54.788Z,94800.56
2022-09-04T23:14:20.053Z,94798.19
2022-09-04T23:17:06.362Z,94794.13
2022-09-04T23:26:33.635Z,94801.56
2022-09-04T23:26:46.247Z,94793.72
2022-09-04T23:26:53.590Z,94802.72
2022-09-04T23:29:44.436Z,94798.06
2022-09-04T23:32:49.853Z,94787.47
2022-09-04T23:35:27.566Z,94788.53
2022-09-04T23:38:33.055Z,94791.28
2022-09-04T23:41:02.673Z,94780.03
2022-09-04T23:43:47.953Z,94793.22
2022-09-04T23:46:39.761Z,94788.00
2022-09-04T23:49:37.852Z,94780.03
2022-09-04T23:52:27.708Z,94779.25
2022-09-04T23:55:06.375Z,94774.72
2022-09-04T23:57:47.731Z,94770.66
